Time;durP1;ratioP1;P1;durP2;ratioP2;P2;SDS_P1;SDS_P2;PMS_P1;PMS_P2;Temp;Humidity;BMP_temperature;BMP_pressure;BME280_temperature;BME280_humidity;BME280_pressure;Samples;Min_cycle;Max_cycle;Signal;HPM_P1;HPM_P2
2021/09/16 00:01:29;;;;;;;46.10;19.87;;;;;;;10.31;55.93;100289.48;1768511;81;21315;-77
2021/09/16 00:04:35;;;;;;;47.98;19.12;;;;;;;10.29;56.05;100291.00;1769637;81;21141;-77
2021/09/16 00:07:40;;;;;;;54.63;20.23;;;;;;;10.27;56.17;100298.53;1769640;81;21157;-77
2021/09/16 00:10:47;;;;;;;59.63;21.77;;;;;;;10.23;56.47;100300.72;1769514;81;21648;-77
2021/09/16 00:13:54;;;;;;;56.50;19.98;;;;;;;10.19;56.84;100293.89;1768025;81;21157;-77
2021/09/16 00:17:01;;;;;;;47.33;19.27;;;;;;;10.17;57.05;100295.11;1768066;81;21161;-78
2021/09/16 00:20:07;;;;;;;68.65;21.48;;;;;;;10.16;57.34;100295.63;1768180;81;21315;-78
2021/09/16 00:23:13;;;;;;;54.40;21.90;;;;;;;10.16;57.36;100296.11;1768132;81;21221;-78
2021/09/16 00:26:18;;;;;;;64.97;23.35;;;;;;;10.13;57.48;100297.33;1768066;81;21304;-77
2021/09/16 00:29:24;;;;;;;58.55;23.05;;;;;;;10.11;57.78;100299.88;1769498;81;21850;-78
2021/09/16 00:32:29;;;;;;;61.63;22.65;;;;;;;10.06;58.20;100297.67;1769371;81;21141;-77
2021/09/16 00:35:36;;;;;;;63.40;22.65;;;;;;;10.04;58.13;100304.35;1768079;80;21173;-77
2021/09/16 00:38:40;;;;;;;53.05;22.25;;;;;;;9.98;58.40;100305.91;1769700;81;21161;-77
2021/09/16 00:41:48;;;;;;;66.10;23.05;;;;;;;9.90;59.08;100303.17;1768370;81;21606;-77
2021/09/16 00:44:53;;;;;;;58.60;22.90;;;;;;;9.84;59.53;100305.23;1769574;81;21209;-77
2021/09/16 00:47:58;;;;;;;57.53;22.20;;;;;;;9.81;60.01;100297.38;1769435;81;21276;-77
2021/09/16 00:51:03;;;;;;;57.62;20.27;;;;;;;9.81;60.35;100294.13;1769576;81;21930;-77
2021/09/16 00:54:10;;;;;;;52.60;19.20;;;;;;;9.81;60.88;100294.13;1769387;81;21232;-77
2021/09/16 00:57:16;;;;;;;45.40;20.62;;;;;;;9.85;61.02;100300.11;1768427;81;21212;-77
2021/09/16 01:00:23;;;;;;;55.58;20.40;;;;;;;9.88;61.27;100301.98;1752432;81;21827;-77
2021/09/16 01:03:28;;;;;;;56.88;19.55;;;;;;;9.92;61.47;100302.47;1767765;81;21161;-77
2021/09/16 01:06:35;;;;;;;57.73;19.98;;;;;;;9.94;61.47;100302.66;1768938;81;21598;-78
2021/09/16 01:09:43;;;;;;;49.08;17.77;;;;;;;9.97;61.42;100305.05;1751817;81;21169;-77
2021/09/16 01:12:48;;;;;;;42.62;17.62;;;;;;;9.98;61.47;100301.80;1769682;81;21859;-77
2021/09/16 01:15:54;;;;;;;57.10;18.42;;;;;;;9.97;61.34;100310.52;1769581;81;21276;-77
2021/09/16 01:19:00;;;;;;;51.10;19.10;;;;;;;9.96;61.29;100300.59;1769658;81;21807;-78
2021/09/16 01:22:06;;;;;;;45.80;18.12;;;;;;;9.94;61.33;100302.66;1767984;81;21216;-77
2021/09/16 01:25:11;;;;;;;53.20;20.35;;;;;;;9.93;61.42;100300.95;1766578;80;21709;-77
2021/09/16 01:28:17;;;;;;;48.10;19.02;;;;;;;9.91;61.47;100300.26;1769709;81;21851;-77
2021/09/16 01:31:23;;;;;;;47.98;18.37;;;;;;;9.88;61.55;100299.25;1769591;81;21332;-77
2021/09/16 01:34:28;;;;;;;48.65;18.90;;;;;;;9.86;61.63;100301.29;1769480;81;21162;-77
2021/09/16 01:37:35;;;;;;;49.98;19.12;;;;;;;9.86;61.73;100304.53;1768155;81;21747;-77
2021/09/16 01:40:40;;;;;;;38.60;17.15;;;;;;;9.86;61.82;100301.80;1769494;81;21815;-78
2021/09/16 01:43:45;;;;;;;63.45;20.60;;;;;;;9.83;61.88;100293.42;1769652;81;21275;-78
2021/09/16 01:46:51;;;;;;;60.08;21.25;;;;;;;9.80;61.76;100294.30;1769355;81;21338;-77
2021/09/16 01:49:56;;;;;;;45.63;20.82;;;;;;;9.75;61.63;100301.65;1769629;81;21324;-77
2021/09/16 01:53:03;;;;;;;49.15;19.85;;;;;;;9.70;61.72;100310.35;1768173;81;21173;-77
2021/09/16 01:56:09;;;;;;;43.48;18.52;;;;;;;9.63;62.03;100305.22;1767860;81;21180;-77
2021/09/16 01:59:17;;;;;;;51.95;20.75;;;;;;;9.59;62.46;100303.00;1769056;81;21134;-77
2021/09/16 02:02:22;;;;;;;46.25;19.55;;;;;;;9.55;63.27;100301.14;1768053;81;21471;-77
2021/09/16 02:05:27;;;;;;;43.85;19.27;;;;;;;9.53;63.27;100307.78;1768097;81;21165;-77
2021/09/16 02:08:33;;;;;;;48.73;19.23;;;;;;;9.51;63.25;100300.28;1767987;81;21887;-77
2021/09/16 02:11:39;;;;;;;50.78;19.50;;;;;;;9.49;63.34;100296.34;1769556;81;21267;-77
2021/09/16 02:14:45;;;;;;;45.15;19.27;;;;;;;9.47;63.48;100300.61;1769574;81;21302;-77
2021/09/16 02:17:51;;;;;;;47.13;19.75;;;;;;;9.44;63.51;100296.84;1768048;81;21165;-77
2021/09/16 02:20:57;;;;;;;53.83;19.30;;;;;;;9.43;63.65;100301.97;1769510;81;21838;-78
2021/09/16 02:24:03;;;;;;;44.23;19.80;;;;;;;9.40;63.82;100305.54;1768307;81;21300;-77
2021/09/16 02:27:08;;;;;;;45.08;19.92;;;;;;;9.39;63.99;100310.15;1772872;80;21295;-77
2021/09/16 02:30:14;;;;;;;52.78;19.17;;;;;;;9.37;64.20;100310.84;1783184;80;22566;-77
2021/09/16 02:33:20;;;;;;;46.83;19.52;;;;;;;9.36;64.34;100315.97;1783338;80;21275;-77
2021/09/16 02:36:26;;;;;;;47.13;19.50;;;;;;;9.34;64.50;100308.44;1783283;80;21271;-77
2021/09/16 02:39:32;;;;;;;55.83;20.72;;;;;;;9.34;64.56;100311.69;1684262;81;21242;-77
2021/09/16 02:42:38;;;;;;;50.80;21.00;;;;;;;9.32;64.70;100313.23;1682550;85;21345;-77
2021/09/16 02:45:44;;;;;;;55.90;20.68;;;;;;;9.31;64.89;100321.05;1682327;85;21216;-77
2021/09/16 02:48:50;;;;;;;65.40;21.17;;;;;;;9.29;65.19;100309.45;1682813;85;21670;-77
2021/09/16 02:51:56;;;;;;;64.07;22.75;;;;;;;9.30;65.40;100308.95;1683159;85;21393;-77
2021/09/16 02:55:03;;;;;;;63.73;22.67;;;;;;;9.28;65.58;100309.13;1682418;85;21403;-77
2021/09/16 02:58:08;;;;;;;50.50;20.62;;;;;;;9.26;65.69;100304.33;1716391;82;21301;-77
2021/09/16 03:01:13;;;;;;;50.65;20.27;;;;;;;9.26;65.55;100301.59;1764333;81;21335;-77
2021/09/16 03:04:20;;;;;;;57.38;22.02;;;;;;;9.26;65.44;100310.30;1775423;81;21307;-77
2021/09/16 03:07:26;;;;;;;54.35;20.72;;;;;;;9.25;65.57;100313.54;1775399;81;21299;-77
2021/09/16 03:10:31;;;;;;;60.20;20.43;;;;;;;9.25;65.65;100311.33;1777004;81;21185;-77
2021/09/16 03:13:37;;;;;;;61.30;23.62;;;;;;;9.25;65.62;100314.05;1776778;81;21347;-77
2021/09/16 03:16:44;;;;;;;67.53;23.07;;;;;;;9.24;65.70;100312.35;1775248;80;21196;-77
2021/09/16 03:19:50;;;;;;;59.38;22.60;;;;;;;9.22;65.86;100316.59;1775537;81;21870;-77
2021/09/16 03:22:56;;;;;;;53.28;22.70;;;;;;;9.21;66.04;100319.84;1773641;81;21712;-77
2021/09/16 03:26:02;;;;;;;60.75;21.40;;;;;;;9.21;66.32;100321.72;1751827;82;21327;-77
2021/09/16 03:29:09;;;;;;;60.63;21.90;;;;;;;9.24;66.51;100321.91;1752008;82;21328;-77
2021/09/16 03:32:15;;;;;;;61.65;20.65;;;;;;;9.28;66.58;100324.65;1752859;82;21356;-77
2021/09/16 03:35:21;;;;;;;58.87;22.37;;;;;;;9.33;66.65;100328.58;1752849;82;21884;-78
2021/09/16 03:38:26;;;;;;;60.03;21.82;;;;;;;9.41;66.62;100331.81;1752060;81;21229;-78
2021/09/16 03:41:32;;;;;;;50.45;22.40;;;;;;;9.46;66.54;100335.77;1717583;83;21724;-77
2021/09/16 03:44:37;;;;;;;70.60;22.87;;;;;;;9.54;66.41;100336.27;1717565;83;21302;-77
2021/09/16 03:47:43;;;;;;;72.65;23.47;;;;;;;9.63;66.25;100335.77;1717606;83;21354;-77
2021/09/16 03:50:49;;;;;;;56.02;21.15;;;;;;;9.72;66.05;100341.59;1715997;83;21208;-76
2021/09/16 03:53:56;;;;;;;49.10;20.55;;;;;;;9.81;65.84;100341.92;1712702;83;21786;-76
2021/09/16 03:57:02;;;;;;;60.85;21.97;;;;;;;9.91;65.61;100346.70;1663279;86;21846;-76
2021/09/16 04:00:08;;;;;;;60.23;20.80;;;;;;;10.04;65.24;100353.55;1691253;85;21236;-76
2021/09/16 04:03:16;;;;;;;48.00;21.25;;;;;;;10.12;64.86;100346.71;1692624;85;21316;-76
2021/09/16 04:06:23;;;;;;;59.63;22.17;;;;;;;10.21;64.63;100347.05;1689578;84;21184;-76
2021/09/16 04:09:28;;;;;;;50.70;19.80;;;;;;;10.34;64.35;100341.90;1682684;85;21216;-76
2021/09/16 04:12:34;;;;;;;50.15;19.50;;;;;;;10.47;63.97;100344.95;1707431;83;21185;-76
2021/09/16 04:15:40;;;;;;;60.40;20.80;;;;;;;10.61;63.69;100354.84;1716774;83;21906;-77
2021/09/16 04:18:47;;;;;;;53.02;20.65;;;;;;;10.73;63.50;100349.34;1724738;83;21213;-77
2021/09/16 04:21:53;;;;;;;51.25;19.07;;;;;;;10.87;63.38;100354.56;1729141;83;21316;-77
2021/09/16 04:24:58;;;;;;;44.80;19.95;;;;;;;11.03;63.24;100355.02;1694839;83;21298;-77
2021/09/16 04:28:05;;;;;;;52.98;19.77;;;;;;;11.16;63.06;100364.38;1698362;83;22023;-78
2021/09/16 04:31:12;;;;;;;49.13;20.85;;;;;;;11.27;62.73;100367.21;1713008;83;21331;-76
2021/09/16 04:34:18;;;;;;;57.78;22.98;;;;;;;11.36;62.54;100359.29;1674015;83;21327;-77
2021/09/16 04:37:25;;;;;;;53.68;23.30;;;;;;;11.45;62.42;100362.31;1687580;83;21218;-77
2021/09/16 04:40:31;;;;;;;62.88;22.95;;;;;;;11.54;62.29;100361.75;1676080;84;21343;-77
2021/09/16 04:43:37;;;;;;;60.48;24.60;;;;;;;11.61;62.16;100365.45;1748588;81;21825;-76
2021/09/16 04:46:43;;;;;;;49.25;21.40;;;;;;;11.67;61.95;100363.91;1763658;80;21173;-77
2021/09/16 04:49:50;;;;;;;51.73;21.10;;;;;;;11.70;61.69;100365.73;1754890;81;21375;-77
2021/09/16 04:52:55;;;;;;;56.77;20.88;;;;;;;11.74;61.46;100367.60;1756031;81;21178;-77
2021/09/16 04:55:55;;;;;;;50.50;18.85;;;;;;;11.76;61.06;100369.14;1755387;81;21343;-77
2021/09/16 04:59:02;;;;;;;37.98;18.05;;;;;;;11.76;60.41;100369.63;1755120;81;21189;-77
2021/09/16 05:02:08;;;;;;;42.23;18.25;;;;;;;11.74;60.33;100365.70;1749006;81;21203;-77
2021/09/16 05:05:15;;;;;;;42.25;17.45;;;;;;;11.76;60.30;100366.89;1758161;81;21816;-77
2021/09/16 05:08:21;;;;;;;38.60;17.50;;;;;;;11.81;60.25;100363.60;1756186;81;21301;-76
2021/09/16 05:11:33;;;;;;;30.48;14.93;;;;;;;11.85;60.08;100360.86;1755874;81;21212;-76
2021/09/16 05:15:01;;;;;;;40.12;16.48;;;;;;;11.93;59.97;100367.66;1740970;80;21209;-76
2021/09/16 05:18:08;;;;;;;35.30;15.43;;;;;;;12.02;60.02;100367.92;1725562;80;21211;-76
2021/09/16 05:21:15;;;;;;;36.13;16.57;;;;;;;12.14;60.08;100372.44;1748391;80;21534;-77
2021/09/16 05:24:24;;;;;;;40.90;16.10;;;;;;;12.28;59.97;100374.39;1748210;81;21792;-76
2021/09/16 05:30:47;;;;;;;55.00;20.12;;;;;;;12.72;59.55;100369.47;1735079;81;21197;-77
2021/09/16 05:33:55;;;;;;;57.35;21.80;;;;;;;12.97;58.82;100371.40;1726693;81;21213;-76
2021/09/16 05:37:03;;;;;;;40.80;20.00;;;;;;;13.24;57.75;100374.02;1746788;80;21308;-78
2021/09/16 05:40:07;;;;;;;44.33;20.57;;;;;;;13.53;56.60;100379.95;1740265;80;21299;-78
2021/09/16 05:43:13;;;;;;;36.88;16.77;;;;;;;13.79;55.52;100374.76;1743805;80;21179;-77
2021/09/16 05:46:18;;;;;;;31.20;15.13;;;;;;;14.06;54.25;100390.97;1748440;80;21307;-77
2021/09/16 05:49:23;;;;;;;33.85;16.20;;;;;;;14.33;53.04;100389.84;1745739;80;21264;-77
2021/09/16 05:52:32;;;;;;;35.38;15.20;;;;;;;14.56;52.11;100388.27;1746562;80;21154;-77
2021/09/16 05:55:40;;;;;;;33.23;14.33;;;;;;;14.79;51.05;100387.47;1745658;80;21177;-77
2021/09/16 05:58:45;;;;;;;29.80;13.03;;;;;;;15.02;50.21;100389.94;1731828;80;21162;-77
2021/09/16 06:01:56;;;;;;;22.83;11.67;;;;;;;15.19;49.34;100385.45;1712750;80;21184;-78
2021/09/16 06:05:00;;;;;;;31.60;12.50;;;;;;;15.37;48.82;100383.00;1748709;80;21781;-76
2021/09/16 06:08:07;;;;;;;24.90;10.32;;;;;;;15.58;48.09;100380.13;1752867;80;21164;-76
2021/09/16 06:11:11;;;;;;;24.75;10.25;;;;;;;15.84;47.83;100376.59;1749609;80;21674;-77
2021/09/16 06:14:17;;;;;;;28.80;9.45;;;;;;;16.14;46.68;100386.39;1746966;80;21212;-76
2021/09/16 06:17:24;;;;;;;10.98;5.60;;;;;;;16.42;46.05;100382.05;1753245;80;21662;-80
2021/09/16 06:20:30;;;;;;;13.72;6.40;;;;;;;16.65;44.76;100383.84;1753189;80;21893;-77
2021/09/16 06:23:36;;;;;;;13.80;5.53;;;;;;;16.85;44.24;100379.19;1750295;80;21293;-77
2021/09/16 06:26:42;;;;;;;18.23;6.50;;;;;;;17.04;43.70;100377.45;1753052;80;21333;-77
2021/09/16 06:29:48;;;;;;;13.85;6.20;;;;;;;17.20;43.76;100379.41;1749983;80;21175;-77
2021/09/16 06:32:54;;;;;;;13.20;5.17;;;;;;;17.38;43.30;100382.31;1757268;80;21307;-77
2021/09/16 06:35:59;;;;;;;18.55;5.30;;;;;;;17.55;43.05;100382.14;1750514;80;21256;-76
2021/09/16 06:39:05;;;;;;;12.10;3.72;;;;;;;17.69;42.74;100380.66;1749781;80;21176;-78
2021/09/16 06:42:13;;;;;;;15.95;4.50;;;;;;;17.79;41.63;100386.63;1748472;80;21268;-77
2021/09/16 06:45:19;;;;;;;11.15;3.42;;;;;;;17.75;41.63;100386.21;1744591;80;21628;-77
2021/09/16 06:48:25;;;;;;;14.43;4.62;;;;;;;17.69;41.68;100392.60;1748422;80;21308;-79
2021/09/16 06:51:31;;;;;;;14.85;5.40;;;;;;;17.58;41.79;100389.98;1745617;80;21207;-77
2021/09/16 06:54:39;;;;;;;16.27;4.67;;;;;;;17.48;41.69;100393.75;1721811;80;22282;-77
2021/09/16 06:57:48;;;;;;;;;;;;;;;17.38;42.01;100393.37;1748773;80;21280;-78
2021/09/16 07:00:58;;;;;;;14.53;5.53;;;;;;;17.33;42.46;100394.03;1747624;80;20290;-77
2021/09/16 07:04:08;;;;;;;15.15;4.25;;;;;;;17.35;42.70;100393.27;1752028;80;22388;-78
2021/09/16 07:07:16;;;;;;;14.93;5.70;;;;;;;17.39;42.24;100396.45;1745460;80;21319;-78
2021/09/16 07:10:21;;;;;;;19.98;6.45;;;;;;;17.42;42.50;100399.33;1749417;80;21176;-77
2021/09/16 07:13:27;;;;;;;19.32;6.67;;;;;;;17.46;42.62;100411.65;1752084;80;21156;-77
2021/09/16 07:16:32;;;;;;;12.53;5.60;;;;;;;17.50;42.48;100407.34;1754885;80;21270;-78
2021/09/16 07:19:40;;;;;;;20.92;6.08;;;;;;;17.59;42.56;100404.65;1749235;80;21670;-78
2021/09/16 07:22:45;;;;;;;22.93;7.40;;;;;;;17.74;41.72;100403.88;1746703;80;21302;-78
2021/09/16 07:25:51;;;;;;;15.55;5.70;;;;;;;17.88;41.37;100404.66;1749658;80;21291;-78
2021/09/16 07:29:11;;;;;;;24.05;6.10;;;;;;;18.01;41.14;100403.70;1743869;80;21399;-78
2021/09/16 07:32:18;;;;;;;15.32;6.15;;;;;;;18.13;40.94;100395.86;1743765;80;21217;-77
2021/09/16 07:35:24;;;;;;;14.45;5.90;;;;;;;18.24;40.62;100397.05;1748302;80;21295;-78
2021/09/16 07:38:30;;;;;;;20.55;5.25;;;;;;;18.29;40.38;100397.76;1746004;80;21539;-76
2021/09/16 07:41:35;;;;;;;9.98;3.52;;;;;;;18.34;40.65;100402.09;1744449;80;21192;-77
2021/09/16 07:44:41;;;;;;;7.08;3.27;;;;;;;18.42;40.29;100399.05;1745117;80;21375;-76
2021/09/16 07:47:46;;;;;;;6.75;3.30;;;;;;;18.40;39.96;100397.05;1725564;80;21342;-76
2021/09/16 07:50:52;;;;;;;8.68;2.33;;;;;;;18.36;39.95;100395.80;1740830;80;21525;-76
2021/09/16 07:53:59;;;;;;;10.25;2.22;;;;;;;18.32;40.47;100395.94;1726882;80;21325;-76
2021/09/16 07:57:06;;;;;;;12.23;2.70;;;;;;;18.36;40.53;100388.34;1700843;80;21206;-76
2021/09/16 08:00:13;;;;;;;10.95;3.40;;;;;;;18.49;40.32;100393.44;1725743;80;21158;-76
2021/09/16 08:03:19;;;;;;;8.00;3.10;;;;;;;18.59;39.40;100386.88;1741277;80;21276;-76
2021/09/16 08:06:24;;;;;;;9.65;2.92;;;;;;;18.69;39.50;100388.63;1732395;80;21295;-76
2021/09/16 08:09:32;;;;;;;10.60;2.85;;;;;;;18.76;39.63;100385.77;1739283;80;22334;-77
2021/09/16 08:12:44;;;;;;;10.10;3.37;;;;;;;18.82;39.82;100395.94;1753258;80;21157;-77
2021/09/16 08:15:53;;;;;;;8.68;3.45;;;;;;;18.83;39.51;100381.88;1755724;80;21309;-76
2021/09/16 08:26:45;;;;;;;8.95;3.10;;;;;;;18.89;39.50;100370.41;1739234;82;21102;-77
2021/09/16 08:29:51;;;;;;;7.50;2.95;;;;;;;18.95;39.34;100369.47;1735781;80;21248;-78
2021/09/16 08:32:56;;;;;;;11.38;3.30;;;;;;;19.02;38.68;100359.72;1742547;80;21693;-77
2021/09/16 08:36:02;;;;;;;8.05;3.00;;;;;;;19.08;38.89;100371.27;1742827;80;21392;-77
2021/09/16 08:39:09;;;;;;;7.58;3.15;;;;;;;19.12;38.47;100358.09;1736338;80;21213;-76
2021/09/16 08:42:14;;;;;;;9.30;3.08;;;;;;;19.18;37.87;100352.70;1735961;80;21207;-76
2021/09/16 08:45:22;;;;;;;9.40;3.02;;;;;;;19.21;38.02;100342.55;1733815;80;21339;-77
2021/09/16 08:48:27;;;;;;;8.45;2.42;;;;;;;19.23;37.98;100346.77;1735426;81;21304;-77
2021/09/16 08:51:34;;;;;;;11.93;2.77;;;;;;;19.31;38.41;100344.22;1739029;81;21227;-78
2021/09/16 08:54:40;;;;;;;8.38;2.58;;;;;;;19.38;38.04;100343.58;1737063;81;21631;-77
2021/09/16 08:57:40;;;;;;;5.97;2.75;;;;;;;19.42;37.48;100350.36;1741761;80;21328;-77
2021/09/16 09:00:45;;;;;;;10.32;2.47;;;;;;;19.40;37.01;100345.59;1742223;81;21326;-76
2021/09/16 09:03:52;;;;;;;7.33;2.60;;;;;;;19.37;37.50;100352.98;1725728;81;21290;-77
2021/09/16 09:07:02;;;;;;;10.80;3.00;;;;;;;19.36;36.86;100344.37;1739455;80;21817;-77
2021/09/16 09:10:10;;;;;;;5.97;2.42;;;;;;;19.37;37.39;100341.35;1723644;81;21316;-76
2021/09/16 09:13:41;;;;;;;6.53;3.17;;;;;;;19.44;37.37;100352.37;1736346;81;21231;-76
2021/09/16 09:16:45;;;;;;;9.35;2.92;;;;;;;19.45;36.25;100353.22;1736006;80;21213;-77
2021/09/16 09:19:52;;;;;;;11.33;3.10;;;;;;;19.39;36.10;100344.76;1713818;80;21217;-77
2021/09/16 09:22:58;;;;;;;5.75;2.80;;;;;;;19.39;36.58;100335.05;1740841;80;21243;-78
2021/09/16 09:26:06;;;;;;;17.80;4.22;;;;;;;19.41;36.98;100333.42;1741027;80;21716;-77
2021/09/16 09:29:15;;;;;;;11.35;3.87;;;;;;;19.43;36.81;100340.95;1733861;80;21546;-76
2021/09/16 09:32:23;;;;;;;11.97;3.87;;;;;;;19.48;36.14;100341.64;1725775;80;21254;-77
2021/09/16 09:35:48;;;;;;;9.93;3.62;;;;;;;19.49;36.45;100332.26;1736718;80;21658;-77
2021/09/16 09:39:06;;;;;;;10.28;3.67;;;;;;;19.52;36.21;100331.23;1740119;81;21297;-77
2021/09/16 09:42:33;;;;;;;12.37;3.60;;;;;;;19.61;35.87;100342.34;1736799;81;21565;-77
2021/09/16 09:45:40;;;;;;;8.45;3.65;;;;;;;19.68;34.70;100338.09;1736020;80;21335;-78
2021/09/16 09:48:48;;;;;;;9.20;3.45;;;;;;;19.71;34.85;100328.44;1724762;81;21386;-77
2021/09/16 09:52:05;;;;;;;19.57;3.47;;;;;;;19.73;34.80;100341.55;1722133;81;21294;-77
2021/09/16 09:55:14;;;;;;;7.83;3.58;;;;;;;19.74;35.27;100332.98;1706001;81;21297;-78
2021/09/16 09:58:23;;;;;;;8.48;2.85;;;;;;;19.75;35.46;100321.34;1686461;81;21224;-78
2021/09/16 10:01:40;;;;;;;15.03;3.10;;;;;;;19.78;34.64;100325.04;1717618;81;21398;-77
2021/09/16 10:04:48;;;;;;;8.10;3.10;;;;;;;19.77;33.89;100327.52;1724544;81;21156;-77
2021/09/16 10:07:54;;;;;;;5.42;2.60;;;;;;;19.78;33.40;100326.43;1705875;81;21172;-77
2021/09/16 10:11:05;;;;;;;14.98;3.60;;;;;;;19.82;33.68;100323.48;1722335;81;22063;-77
2021/09/16 10:14:12;;;;;;;11.00;3.62;;;;;;;19.85;33.22;100326.61;1718336;81;21772;-76
2021/09/16 10:17:17;;;;;;;13.75;3.70;;;;;;;19.85;32.15;100324.38;1718249;81;21236;-77
2021/09/16 10:20:19;;;;;;;11.65;3.67;;;;;;;19.84;32.36;100323.54;1723146;81;21934;-78
2021/09/16 10:23:16;;;;;;;15.63;3.42;;;;;;;19.87;33.21;100326.40;1694007;81;21192;-77
2021/09/16 10:26:39;;;;;;;13.55;3.60;;;;;;;19.88;32.93;100328.92;1717741;81;21302;-78
2021/09/16 10:29:32;;;;;;;8.33;3.95;;;;;;;19.89;33.02;100333.39;1678527;81;21669;-77
2021/09/16 10:32:37;;;;;;;5.28;2.98;;;;;;;19.91;32.89;100324.30;1715535;81;21204;-80
2021/09/16 10:35:34;;;;;;;5.28;2.52;;;;;;;19.92;32.97;100325.14;1720749;81;21208;-82
2021/09/16 10:38:56;;;;;;;8.90;3.33;;;;;;;19.90;32.91;100332.84;1718574;81;21882;-78
2021/09/16 10:41:47;;;;;;;17.23;3.35;;;;;;;19.86;33.07;100328.33;1717199;81;21216;-78
2021/09/16 10:44:42;;;;;;;16.65;3.62;;;;;;;19.87;33.09;100324.47;1715719;81;21337;-77
2021/09/16 10:47:51;;;;;;;10.15;3.70;;;;;;;19.91;32.54;100338.72;1734740;80;21339;-78
2021/09/16 10:51:01;;;;;;;5.87;2.90;;;;;;;19.96;32.22;100338.86;1736271;80;21671;-77
2021/09/16 10:54:09;;;;;;;13.85;2.92;;;;;;;19.97;31.62;100330.83;1737774;80;21221;-78
2021/09/16 10:57:41;;;;;;;11.20;3.20;;;;;;;19.99;31.27;100323.64;1739503;80;22536;-77
2021/09/16 11:00:51;;;;;;;11.30;2.60;;;;;;;19.99;31.83;100323.64;1736624;80;21177;-77
2021/09/16 11:04:23;;;;;;;7.42;3.22;;;;;;;19.98;32.24;100325.57;1744545;79;21335;-81
2021/09/16 11:07:49;;;;;;;10.03;3.00;;;;;;;20.00;32.01;100319.26;1739750;80;21177;-81
2021/09/16 11:10:57;;;;;;;8.95;3.62;;;;;;;20.03;31.55;100316.53;1739099;80;21181;-77
2021/09/16 11:14:10;;;;;;;7.35;2.98;;;;;;;20.04;30.97;100317.70;1739086;81;21287;-78
2021/09/16 11:17:20;;;;;;;17.30;3.20;;;;;;;20.06;30.62;100316.91;1743807;80;21185;-78
2021/09/16 11:20:28;;;;;;;7.22;3.00;;;;;;;20.10;30.86;100319.52;1727145;80;21262;-78
2021/09/16 11:23:51;;;;;;;16.70;3.30;;;;;;;20.10;31.47;100309.80;1739928;81;21530;-78
2021/09/16 11:26:58;;;;;;;13.72;3.55;;;;;;;20.12;30.49;100311.77;1736120;80;21197;-78
2021/09/16 11:30:03;;;;;;;8.85;3.77;;;;;;;20.15;31.15;100307.14;1739224;81;21880;-78
2021/09/16 11:33:17;;;;;;;10.35;3.52;;;;;;;20.16;31.25;100308.83;1725460;80;21312;-77
2021/09/16 11:36:25;;;;;;;10.68;3.77;;;;;;;20.16;31.23;100297.72;1741076;81;21281;-78
2021/09/16 11:39:34;;;;;;;8.70;3.72;;;;;;;20.17;31.58;100295.24;1737857;81;21263;-78
2021/09/16 11:42:42;;;;;;;6.47;3.17;;;;;;;20.20;31.77;100300.03;1741709;80;21303;-79
2021/09/16 11:45:55;;;;;;;9.05;3.45;;;;;;;20.20;31.38;100300.88;1740043;80;21339;-79
2021/09/16 11:49:04;;;;;;;9.55;3.98;;;;;;;20.22;31.20;100293.13;1739041;80;21209;-78
2021/09/16 11:52:10;;;;;;;13.68;3.83;;;;;;;20.23;31.44;100296.23;1702589;81;21278;-78
2021/09/16 11:55:24;;;;;;;8.35;3.42;;;;;;;20.19;31.32;100290.02;1716669;81;21683;-77
2021/09/16 11:58:37;;;;;;;12.07;3.67;;;;;;;20.14;31.13;100286.02;1733035;80;21342;-77
2021/09/16 12:01:42;;;;;;;9.15;3.92;;;;;;;20.15;30.94;100289.09;1734088;80;21324;-77
2021/09/16 12:04:49;;;;;;;14.73;3.58;;;;;;;20.19;31.56;100287.23;1743402;81;21189;-76
2021/09/16 12:07:55;;;;;;;14.75;3.58;;;;;;;20.25;31.96;100282.94;1724310;80;21193;-77
2021/09/16 12:11:15;;;;;;;13.32;3.42;;;;;;;20.30;31.87;100277.51;1719302;81;21150;-77
2021/09/16 12:14:22;;;;;;;5.65;3.00;;;;;;;20.31;32.16;100272.80;1740916;80;21304;-77
2021/09/16 12:17:27;;;;;;;4.97;3.27;;;;;;;20.31;32.41;100272.25;1737824;80;22403;-77
2021/09/16 12:20:35;;;;;;;7.15;3.10;;;;;;;20.33;32.88;100269.25;1734474;81;21209;-77
2021/09/16 12:23:42;;;;;;;5.78;3.12;;;;;;;20.38;32.56;100267.98;1743106;80;21795;-77
2021/09/16 12:26:51;;;;;;;8.65;3.33;;;;;;;20.38;32.42;100265.20;1741206;81;21149;-77
2021/09/16 12:29:57;;;;;;;8.45;3.45;;;;;;;20.38;32.00;100261.88;1745733;81;21870;-77
2021/09/16 12:33:02;;;;;;;18.60;3.25;;;;;;;20.39;32.38;100262.72;1730021;80;21319;-77
2021/09/16 12:36:26;;;;;;;8.15;3.30;;;;;;;20.38;31.95;100263.27;1730880;80;21310;-77
2021/09/16 12:39:33;;;;;;;12.30;3.02;;;;;;;20.38;31.62;100259.10;1734125;80;21315;-77
2021/09/16 12:42:41;;;;;;;5.83;2.65;;;;;;;20.40;31.32;100265.25;1743531;80;21323;-77
2021/09/16 12:45:47;;;;;;;12.03;3.22;;;;;;;20.40;31.49;100264.41;1748450;81;21331;-77
2021/09/16 12:48:54;;;;;;;9.45;2.37;;;;;;;20.39;31.40;100265.50;1735078;80;21770;-77
2021/09/16 12:52:11;;;;;;;8.98;2.60;;;;;;;20.35;31.46;100261.51;1705471;82;21299;-77
2021/09/16 12:55:18;;;;;;;10.30;3.08;;;;;;;20.32;31.35;100258.66;1705776;82;21328;-77
2021/09/16 12:58:24;;;;;;;9.83;2.67;;;;;;;20.29;31.19;100254.16;1703612;83;22338;-77
2021/09/16 13:01:40;;;;;;;9.63;2.80;;;;;;;20.29;31.26;100254.16;1707384;82;21705;-77
2021/09/16 13:05:10;;;;;;;8.50;2.45;;;;;;;20.30;31.34;100255.84;1700489;82;21368;-77
2021/09/16 13:08:26;;;;;;;8.65;2.47;;;;;;;20.29;31.32;100248.05;1694865;82;21197;-76
2021/09/16 13:11:33;;;;;;;7.78;2.37;;;;;;;20.28;31.38;100258.86;1641377;86;22023;-79
2021/09/16 13:14:39;;;;;;;10.93;2.83;;;;;;;20.27;31.36;100255.77;1646177;85;21238;-77
2021/09/16 13:17:45;;;;;;;11.90;2.58;;;;;;;20.26;31.31;100249.07;1647376;84;21341;-79
2021/09/16 13:20:51;;;;;;;11.18;2.80;;;;;;;20.26;31.25;100256.02;1642683;85;21392;-77
2021/09/16 13:23:56;;;;;;;11.03;2.45;;;;;;;20.23;31.41;100252.31;1641704;84;21399;-77
2021/09/16 13:27:04;;;;;;;15.03;2.35;;;;;;;20.23;31.50;100253.70;1650411;84;21257;-78
2021/09/16 13:30:12;;;;;;;7.78;2.40;;;;;;;20.20;31.43;100253.66;1648239;84;21963;-78
2021/09/16 13:33:17;;;;;;;12.80;2.10;;;;;;;20.14;31.59;100252.70;1647796;85;22283;-77
2021/09/16 13:36:24;;;;;;;11.05;2.30;;;;;;;20.11;31.82;100257.34;1640286;85;21217;-76
2021/09/16 13:39:29;;;;;;;3.15;2.17;;;;;;;20.07;31.88;100261.67;1691101;82;21329;-77
2021/09/16 13:42:37;;;;;;;9.20;2.12;;;;;;;20.06;31.93;100264.70;1699922;82;21598;-79
2021/09/16 13:45:43;;;;;;;10.13;3.00;;;;;;;20.02;31.98;100262.94;1639468;84;21878;-78
2021/09/16 13:48:49;;;;;;;17.27;2.42;;;;;;;20.01;32.27;100257.64;1686549;84;21411;-78
2021/09/16 13:51:56;;;;;;;5.47;2.55;;;;;;;20.00;32.07;100254.56;1721749;83;21319;-77
2021/09/16 13:55:02;;;;;;;12.40;2.92;;;;;;;19.99;32.14;100263.41;1687223;84;21327;-78
2021/09/16 13:58:08;;;;;;;5.85;3.00;;;;;;;19.97;32.26;100261.42;1722135;83;21653;-78
2021/09/16 14:01:14;;;;;;;12.20;2.62;;;;;;;19.98;32.29;100270.59;1686922;85;21343;-78
2021/09/16 14:04:19;;;;;;;8.88;2.58;;;;;;;19.98;32.40;100260.33;1687457;85;21657;-78
2021/09/16 14:08:04;;;;;;;14.65;2.80;;;;;;;19.96;32.46;100259.73;1722785;82;21770;-77
2021/09/16 14:11:11;;;;;;;14.75;2.00;;;;;;;19.91;32.55;100254.06;1722830;83;21922;-77
2021/09/16 14:14:18;;;;;;;9.90;2.65;;;;;;;19.85;32.46;100260.00;1686793;84;21225;-77
2021/09/16 14:17:24;;;;;;;10.10;2.47;;;;;;;19.81;32.55;100265.75;1688291;85;21376;-77
2021/09/16 14:20:30;;;;;;;11.90;2.50;;;;;;;19.77;32.44;100273.41;1722781;83;21340;-77
2021/09/16 14:23:37;;;;;;;6.17;2.02;;;;;;;19.74;32.43;100279.42;1722671;83;21240;-77
2021/09/16 14:26:42;;;;;;;9.55;2.55;;;;;;;19.71;32.64;100277.11;1725053;83;21273;-77
2021/09/16 14:29:49;;;;;;;10.80;2.42;;;;;;;19.68;32.76;100276.21;1725007;83;21273;-77
2021/09/16 14:32:54;;;;;;;11.50;2.62;;;;;;;19.65;32.89;100271.42;1725101;83;21797;-77